Time;durP1;ratioP1;P1;durP2;ratioP2;P2;SDS_P1;SDS_P2;PMS_P1;PMS_P2;Temp;Humidity;BMP_temperature;BMP_pressure;BME280_temperature;BME280_humidity;BME280_pressure;Samples;Min_cycle;Max_cycle;Signal;HPM_P1;HPM_P2
2021/09/05 00:00:53;;;;;;;17.90;9.43;;;;;;;;;;4986848;28;20180;-67
2021/09/05 00:03:18;;;;;;;14.95;9.13;;;;;;;;;;4991642;28;20227;-66
2021/09/05 00:05:44;;;;;;;16.15;10.05;;;;;;;;;;4987914;28;20195;-67
2021/09/05 00:08:09;;;;;;;12.88;9.13;;;;;;;;;;4989086;28;20242;-67
2021/09/05 00:10:34;;;;;;;16.90;10.38;;;;;;;;;;4982927;28;20553;-67
2021/09/05 00:12:59;;;;;;;15.25;9.45;;;;;;;;;;4991770;28;20222;-67
2021/09/05 00:15:24;;;;;;;13.27;9.13;;;;;;;;;;4980553;28;20188;-67
2021/09/05 00:17:49;;;;;;;15.43;11.23;;;;;;;;;;4973415;28;20208;-68
2021/09/05 00:20:15;;;;;;;15.55;9.60;;;;;;;;;;4987396;28;20179;-68
2021/09/05 00:22:40;;;;;;;17.75;10.82;;;;;;;;;;4987658;28;20215;-68
2021/09/05 00:25:05;;;;;;;15.70;10.48;;;;;;;;;;4992187;28;20186;-67
2021/09/05 00:27:30;;;;;;;16.08;9.88;;;;;;;;;;4987732;28;20219;-68
2021/09/05 00:29:56;;;;;;;17.42;9.77;;;;;;;;;;4989412;28;20175;-68
2021/09/05 00:32:21;;;;;;;13.90;9.80;;;;;;;;;;4991555;28;20286;-70
2021/09/05 00:34:46;;;;;;;17.95;10.20;;;;;;;;;;4993612;28;20429;-68
2021/09/05 00:37:11;;;;;;;20.65;10.77;;;;;;;;;;4989101;28;20207;-68
2021/09/05 00:39:36;;;;;;;15.25;9.30;;;;;;;;;;4994293;28;20270;-68
2021/09/05 00:42:02;;;;;;;16.20;9.73;;;;;;;;;;4995208;28;20211;-69
2021/09/05 00:44:27;;;;;;;14.43;9.60;;;;;;;;;;4992619;28;20188;-69
2021/09/05 00:46:52;;;;;;;19.38;10.98;;;;;;;;;;4993246;28;20190;-68
2021/09/05 00:49:17;;;;;;;14.02;9.85;;;;;;;;;;4989579;28;20677;-68
2021/09/05 00:51:43;;;;;;;16.98;11.27;;;;;;;;;;4988845;28;20277;-68
2021/09/05 00:54:10;;;;;;;19.25;10.30;;;;;;;;;;4992434;28;20194;-67
2021/09/05 00:56:36;;;;;;;15.93;9.85;;;;;;;;;;4992502;28;20195;-67
2021/09/05 00:59:05;;;;;;;18.77;10.60;;;;;;;;;;4991859;28;20180;-67
2021/09/05 01:01:30;;;;;;;20.60;11.93;;;;;;;;;;4992099;28;20843;-67
2021/09/05 01:03:56;;;;;;;16.52;9.93;;;;;;;;;;4991601;28;20206;-67
2021/09/05 01:06:21;;;;;;;16.00;9.68;;;;;;;;;;4996047;28;20571;-68
2021/09/05 01:08:48;;;;;;;14.70;9.48;;;;;;;;;;4996404;28;20197;-68
2021/09/05 01:11:13;;;;;;;19.45;9.90;;;;;;;;;;5003259;28;20174;-68
2021/09/05 01:13:39;;;;;;;15.90;10.95;;;;;;;;;;4992357;28;20289;-67
2021/09/05 01:16:04;;;;;;;16.27;10.32;;;;;;;;;;4987634;28;20226;-67
2021/09/05 01:18:29;;;;;;;17.05;10.93;;;;;;;;;;4992936;28;20214;-69
2021/09/05 01:20:54;;;;;;;20.27;10.35;;;;;;;;;;4993956;28;20239;-68
2021/09/05 01:23:19;;;;;;;18.90;10.35;;;;;;;;;;4988310;28;20195;-68
2021/09/05 01:25:45;;;;;;;19.77;11.02;;;;;;;;;;4987168;28;20215;-67
2021/09/05 01:28:10;;;;;;;16.60;10.40;;;;;;;;;;4985578;28;20186;-68
2021/09/05 01:30:36;;;;;;;17.53;10.63;;;;;;;;;;4986657;28;20184;-68
2021/09/05 01:33:01;;;;;;;21.77;11.98;;;;;;;;;;4991077;28;20669;-68
2021/09/05 01:35:26;;;;;;;19.65;10.57;;;;;;;;;;4982687;28;20184;-67
2021/09/05 01:37:51;;;;;;;20.10;10.80;;;;;;;;;;4982640;28;20211;-68
2021/09/05 01:40:16;;;;;;;18.83;10.98;;;;;;;;;;4982349;28;20192;-68
2021/09/05 01:42:42;;;;;;;17.37;10.63;;;;;;;;;;4981804;28;20221;-69
2021/09/05 01:45:07;;;;;;;16.00;11.23;;;;;;;;;;4989657;28;20198;-68
2021/09/05 01:47:32;;;;;;;18.85;11.05;;;;;;;;;;4982906;28;20203;-68
2021/09/05 01:49:57;;;;;;;18.55;10.93;;;;;;;;;;4985056;28;20182;-69
2021/09/05 01:52:23;;;;;;;17.48;10.90;;;;;;;;;;4991737;28;20634;-69
2021/09/05 01:54:48;;;;;;;21.70;11.55;;;;;;;;;;4993667;28;20179;-69
2021/09/05 01:57:13;;;;;;;15.95;9.95;;;;;;;;;;4987924;28;20736;-68
2021/09/05 01:59:38;;;;;;;19.77;10.63;;;;;;;;;;4985043;28;20171;-68
2021/09/05 02:02:04;;;;;;;22.77;12.55;;;;;;;;;;4986824;28;20638;-68
2021/09/05 02:04:29;;;;;;;23.57;10.87;;;;;;;;;;4989009;28;20242;-68
2021/09/05 02:06:54;;;;;;;17.77;11.07;;;;;;;;;;4993451;28;20220;-68
2021/09/05 02:09:19;;;;;;;19.60;11.38;;;;;;;;;;4993564;28;20179;-69
2021/09/05 02:11:44;;;;;;;19.53;12.30;;;;;;;;;;5000063;28;20182;-68
2021/09/05 02:14:09;;;;;;;20.42;11.95;;;;;;;;;;5047130;23;20257;-69
2021/09/05 02:16:35;;;;;;;20.92;11.10;;;;;;;;;;5028807;28;20174;-68
2021/09/05 02:19:01;;;;;;;17.17;11.50;;;;;;;;;;5023274;28;20553;-68
2021/09/05 02:21:26;;;;;;;18.33;11.18;;;;;;;;;;5031478;28;20268;-68
2021/09/05 02:23:51;;;;;;;18.20;11.93;;;;;;;;;;5011690;28;20206;-68
2021/09/05 02:26:17;;;;;;;20.67;12.00;;;;;;;;;;5030205;28;20182;-67
2021/09/05 02:28:42;;;;;;;21.00;11.90;;;;;;;;;;5028952;28;20186;-69
2021/09/05 02:31:07;;;;;;;24.13;12.18;;;;;;;;;;5029825;28;20178;-68
2021/09/05 02:33:32;;;;;;;17.90;11.87;;;;;;;;;;5029674;28;20698;-70
2021/09/05 02:35:57;;;;;;;17.45;11.77;;;;;;;;;;5031166;28;20174;-70
2021/09/05 02:38:22;;;;;;;18.83;11.50;;;;;;;;;;5028621;28;20210;-69
2021/09/05 02:40:48;;;;;;;19.95;11.48;;;;;;;;;;5030200;28;20182;-69
2021/09/05 02:43:13;;;;;;;25.40;10.90;;;;;;;;;;5029013;28;20285;-69
2021/09/05 02:45:38;;;;;;;19.17;12.07;;;;;;;;;;5029915;28;20252;-69
2021/09/05 02:48:04;;;;;;;16.10;11.37;;;;;;;;;;5028199;28;20186;-69
2021/09/05 02:50:29;;;;;;;22.27;12.53;;;;;;;;;;5026077;28;20166;-69
2021/09/05 02:52:54;;;;;;;19.53;12.03;;;;;;;;;;5028965;28;20198;-69
2021/09/05 02:55:20;;;;;;;18.57;11.33;;;;;;;;;;5029379;28;20273;-69
2021/09/05 02:57:45;;;;;;;19.03;12.50;;;;;;;;;;5029826;28;20676;-69
2021/09/05 03:00:10;;;;;;;18.57;10.77;;;;;;;;;;5027409;28;20192;-69
2021/09/05 03:02:37;;;;;;;22.67;13.17;;;;;;;;;;5028604;28;20198;-69
2021/09/05 03:05:02;;;;;;;17.77;11.77;;;;;;;;;;5027771;28;20201;-69
2021/09/05 03:07:27;;;;;;;22.10;12.23;;;;;;;;;;5010169;28;20656;-69
2021/09/05 03:09:52;;;;;;;21.83;12.50;;;;;;;;;;5025825;28;20675;-69
2021/09/05 03:12:18;;;;;;;21.17;12.40;;;;;;;;;;5029952;28;20182;-68
2021/09/05 03:14:43;;;;;;;19.63;12.23;;;;;;;;;;5003193;28;20277;-69
2021/09/05 03:17:08;;;;;;;20.13;12.50;;;;;;;;;;5027043;28;20210;-69
2021/09/05 03:19:33;;;;;;;22.27;12.57;;;;;;;;;;5025795;28;20611;-69
2021/09/05 03:21:58;;;;;;;20.57;12.13;;;;;;;;;;5024876;28;20178;-68
2021/09/05 03:24:24;;;;;;;17.70;11.93;;;;;;;;;;5026890;28;20248;-69
2021/09/05 03:26:49;;;;;;;22.57;11.80;;;;;;;;;;5027175;28;20281;-69
2021/09/05 03:29:14;;;;;;;20.43;12.27;;;;;;;;;;5026743;28;20182;-69
2021/09/05 03:31:39;;;;;;;22.23;12.33;;;;;;;;;;5027407;28;20182;-68
2021/09/05 03:34:04;;;;;;;19.93;11.73;;;;;;;;;;5027167;28;20297;-69
2021/09/05 03:36:30;;;;;;;20.53;11.73;;;;;;;;;;5029535;28;20174;-69
2021/09/05 03:38:55;;;;;;;20.50;12.07;;;;;;;;;;5029515;28;20225;-69
2021/09/05 03:41:20;;;;;;;21.87;13.30;;;;;;;;;;5029165;28;20175;-69
2021/09/05 03:43:45;;;;;;;21.10;11.20;;;;;;;;;;5027354;28;20193;-69
2021/09/05 03:46:10;;;;;;;21.20;12.73;;;;;;;;;;5029866;28;20186;-68
2021/09/05 03:48:36;;;;;;;21.20;11.47;;;;;;;;;;5010078;28;20218;-69
2021/09/05 03:51:01;;;;;;;21.83;11.20;;;;;;;;;;5026769;28;20531;-69
2021/09/05 03:53:26;;;;;;;17.07;12.17;;;;;;;;;;5025361;28;20233;-69
2021/09/05 03:55:52;;;;;;;22.73;12.30;;;;;;;;;;5026854;28;20229;-68
2021/09/05 03:58:17;;;;;;;20.50;12.07;;;;;;;;;;5026031;28;20691;-68
2021/09/05 04:00:42;;;;;;;22.87;13.07;;;;;;;;;;5027446;28;20210;-69
2021/09/05 04:03:07;;;;;;;18.67;11.33;;;;;;;;;;5027428;28;20289;-69
2021/09/05 04:05:33;;;;;;;19.57;11.60;;;;;;;;;;5029124;28;20309;-69
2021/09/05 04:10:29;;;;;;;22.60;13.20;;;;;;;;;;5029944;28;20561;-69
2021/09/05 04:12:55;;;;;;;23.80;13.57;;;;;;;;;;5029404;28;20222;-70
2021/09/05 04:15:20;;;;;;;22.83;11.97;;;;;;;;;;5022125;28;20649;-68
2021/09/05 04:17:45;;;;;;;19.93;13.50;;;;;;;;;;5028633;28;20695;-69
2021/09/05 04:20:10;;;;;;;23.50;12.93;;;;;;;;;;5032664;28;20665;-69
2021/09/05 04:22:35;;;;;;;18.60;11.77;;;;;;;;;;5031939;28;20201;-69
2021/09/05 04:25:01;;;;;;;22.47;12.13;;;;;;;;;;5030838;28;20180;-69
2021/09/05 04:27:26;;;;;;;20.90;12.03;;;;;;;;;;5026774;28;20187;-69
2021/09/05 04:29:52;;;;;;;17.93;11.87;;;;;;;;;;5030988;28;20283;-69
2021/09/05 04:32:20;;;;;;;22.40;13.30;;;;;;;;;;5030592;28;20182;-69
2021/09/05 04:34:45;;;;;;;21.17;12.83;;;;;;;;;;5032744;28;20885;-69
2021/09/05 04:37:10;;;;;;;23.03;12.87;;;;;;;;;;5014784;28;20218;-69
2021/09/05 04:39:35;;;;;;;22.03;12.47;;;;;;;;;;5030944;28;20179;-69
2021/09/05 04:42:00;;;;;;;20.13;12.10;;;;;;;;;;5032904;28;20218;-69
2021/09/05 04:44:25;;;;;;;21.83;12.63;;;;;;;;;;5030176;28;20185;-70
2021/09/05 04:46:51;;;;;;;20.73;12.20;;;;;;;;;;5032707;28;20178;-69
2021/09/05 04:49:16;;;;;;;16.30;11.67;;;;;;;;;;5029904;28;20236;-69
2021/09/05 04:51:41;;;;;;;21.70;12.80;;;;;;;;;;5031329;28;20213;-69
2021/09/05 04:54:06;;;;;;;16.97;11.37;;;;;;;;;;5030040;28;20217;-69
2021/09/05 04:56:31;;;;;;;20.90;12.30;;;;;;;;;;5029209;28;20209;-69
2021/09/05 04:58:56;;;;;;;25.17;13.60;;;;;;;;;;5025534;28;20184;-68
2021/09/05 05:01:22;;;;;;;24.07;12.73;;;;;;;;;;5026009;28;20174;-69
2021/09/05 05:03:47;;;;;;;25.10;13.77;;;;;;;;;;5023611;28;20676;-69
2021/09/05 05:06:12;;;;;;;20.23;11.90;;;;;;;;;;5028588;28;20266;-69
2021/09/05 05:08:37;;;;;;;23.03;14.37;;;;;;;;;;5031674;28;20189;-69
2021/09/05 05:11:02;;;;;;;21.30;12.83;;;;;;;;;;5031678;28;20190;-70
2021/09/05 05:13:28;;;;;;;20.43;13.00;;;;;;;;;;5030811;28;20718;-69
2021/09/05 05:15:56;;;;;;;22.77;13.83;;;;;;;;;;5026789;28;20274;-69
2021/09/05 05:18:21;;;;;;;24.73;14.00;;;;;;;;;;5031487;28;20206;-69
2021/09/05 05:20:47;;;;;;;22.27;13.33;;;;;;;;;;5032155;28;20197;-69
2021/09/05 05:23:12;;;;;;;26.97;13.63;;;;;;;;;;5029281;28;20277;-69
2021/09/05 05:25:37;;;;;;;23.03;13.93;;;;;;;;;;5030925;28;20174;-70
2021/09/05 05:28:02;;;;;;;22.07;13.03;;;;;;;;;;5020932;28;20197;-70
2021/09/05 05:30:27;;;;;;;21.20;13.20;;;;;;;;;;5033680;28;20291;-70
2021/09/05 05:32:53;;;;;;;19.30;13.50;;;;;;;;;;5040394;28;20527;-70
2021/09/05 05:35:18;;;;;;;24.57;13.67;;;;;;;;;;5037896;28;20194;-70
2021/09/05 05:37:43;;;;;;;23.60;12.40;;;;;;;;;;5041205;28;20257;-70
2021/09/05 05:40:08;;;;;;;25.80;12.73;;;;;;;;;;5039359;28;20178;-70
2021/09/05 05:42:34;;;;;;;22.73;12.60;;;;;;;;;;5036479;28;20202;-69
2021/09/05 05:44:59;;;;;;;25.90;14.27;;;;;;;;;;5011751;28;20175;-69
2021/09/05 05:47:27;;;;;;;20.27;13.40;;;;;;;;;;5034525;28;20179;-69
2021/09/05 05:49:52;;;;;;;21.67;13.53;;;;;;;;;;5027699;28;20735;-69
2021/09/05 05:52:17;;;;;;;20.00;12.73;;;;;;;;;;5029629;28;20261;-70
2021/09/05 05:54:42;;;;;;;19.33;12.90;;;;;;;;;;5028005;28;20212;-69
2021/09/05 05:57:08;;;;;;;21.73;12.73;;;;;;;;;;5028388;28;20205;-69
2021/09/05 05:59:33;;;;;;;25.13;13.37;;;;;;;;;;5024009;28;20249;-69
2021/09/05 06:01:59;;;;;;;18.65;12.23;;;;;;;;;;5025273;28;20179;-69
2021/09/05 06:04:24;;;;;;;18.83;11.47;;;;;;;;;;5021358;28;20221;-70
2021/09/05 06:06:50;;;;;;;20.40;12.00;;;;;;;;;;5035589;28;20174;-69
2021/09/05 06:09:15;;;;;;;19.35;11.45;;;;;;;;;;5031880;28;20190;-69
2021/09/05 06:11:40;;;;;;;20.40;12.13;;;;;;;;;;5030071;28;20186;-70
2021/09/05 06:14:05;;;;;;;20.58;10.68;;;;;;;;;;5028739;28;20233;-69
2021/09/05 06:16:31;;;;;;;21.02;12.18;;;;;;;;;;5026508;28;20178;-69
2021/09/05 06:18:56;;;;;;;16.52;11.30;;;;;;;;;;5029607;28;20224;-69
2021/09/05 06:21:21;;;;;;;16.20;11.70;;;;;;;;;;5030153;28;20178;-70
2021/09/05 06:23:47;;;;;;;15.35;11.63;;;;;;;;;;5028553;28;20205;-69
2021/09/05 06:26:12;;;;;;;16.83;10.73;;;;;;;;;;5030919;28;20178;-69
2021/09/05 06:28:37;;;;;;;16.92;11.43;;;;;;;;;;5029204;28;20607;-69
2021/09/05 06:31:02;;;;;;;12.32;9.95;;;;;;;;;;5030567;28;20197;-68
2021/09/05 06:33:28;;;;;;;14.95;10.48;;;;;;;;;;5029414;28;20194;-68
2021/09/05 06:35:53;;;;;;;15.65;11.02;;;;;;;;;;5029496;28;20189;-68
2021/09/05 06:38:18;;;;;;;15.65;10.32;;;;;;;;;;5030050;28;20213;-68
2021/09/05 06:40:43;;;;;;;18.38;10.32;;;;;;;;;;5029821;28;20225;-68
2021/09/05 06:43:08;;;;;;;14.27;11.02;;;;;;;;;;5031093;28;20690;-68
2021/09/05 06:45:34;;;;;;;17.90;10.55;;;;;;;;;;5028192;28;20182;-69
2021/09/05 06:47:59;;;;;;;17.03;10.30;;;;;;;;;;5030101;28;20236;-68
2021/09/05 06:50:24;;;;;;;15.20;9.88;;;;;;;;;;5027081;28;20438;-68
2021/09/05 06:52:49;;;;;;;14.95;9.43;;;;;;;;;;5030457;28;20202;-69
2021/09/05 06:55:14;;;;;;;13.90;9.52;;;;;;;;;;5027371;28;20186;-69
2021/09/05 06:57:40;;;;;;;12.32;9.40;;;;;;;;;;5028714;28;20296;-69
2021/09/05 07:00:05;;;;;;;19.97;10.30;;;;;;;;;;5029781;28;20174;-69
2021/09/05 07:02:30;;;;;;;13.65;9.73;;;;;;;;;;5018090;28;20550;-69
2021/09/05 07:04:55;;;;;;;13.30;9.60;;;;;;;;;;5017493;28;20174;-69
2021/09/05 07:07:21;;;;;;;13.98;9.63;;;;;;;;;;5021007;28;20186;-68
2021/09/05 07:09:46;;;;;;;15.27;11.00;;;;;;;;;;5022328;28;20925;-69
2021/09/05 07:12:11;;;;;;;14.68;10.20;;;;;;;;;;5023049;28;20442;-69
2021/09/05 07:14:36;;;;;;;15.88;10.85;;;;;;;;;;5024704;28;20375;-69
2021/09/05 07:17:01;;;;;;;12.60;9.70;;;;;;;;;;5030432;28;20256;-69
2021/09/05 07:19:27;;;;;;;14.38;9.48;;;;;;;;;;5030442;28;20174;-68
2021/09/05 07:21:52;;;;;;;10.80;8.80;;;;;;;;;;5030080;28;20180;-68
2021/09/05 07:24:17;;;;;;;13.37;8.93;;;;;;;;;;5022482;28;20245;-68
2021/09/05 07:26:42;;;;;;;12.95;9.40;;;;;;;;;;5021535;28;20419;-68
2021/09/05 07:29:07;;;;;;;14.98;8.73;;;;;;;;;;5021867;28;20174;-68
2021/09/05 07:31:33;;;;;;;14.43;8.98;;;;;;;;;;5021475;28;20265;-68
2021/09/05 07:33:58;;;;;;;14.38;9.18;;;;;;;;;;5021681;28;20289;-69
2021/09/05 07:36:24;;;;;;;12.48;8.40;;;;;;;;;;5022500;28;20918;-70
2021/09/05 07:38:49;;;;;;;13.43;9.30;;;;;;;;;;5021496;28;20276;-70
2021/09/05 07:41:14;;;;;;;14.60;8.63;;;;;;;;;;5020319;28;20195;-70
2021/09/05 07:43:42;;;;;;;14.23;9.27;;;;;;;;;;5022049;28;20526;-70
2021/09/05 07:46:07;;;;;;;12.88;8.88;;;;;;;;;;5021723;28;20198;-70
2021/09/05 07:48:32;;;;;;;12.85;8.30;;;;;;;;;;5023897;28;20190;-69
2021/09/05 07:50:57;;;;;;;11.57;8.25;;;;;;;;;;5026666;28;20190;-70
2021/09/05 07:53:22;;;;;;;13.60;8.10;;;;;;;;;;5024686;28;20584;-70
2021/09/05 07:55:48;;;;;;;13.68;8.55;;;;;;;;;;5025595;28;20423;-68
2021/09/05 07:58:13;;;;;;;13.67;8.70;;;;;;;;;;5026346;28;20244;-68
2021/09/05 08:00:38;;;;;;;12.73;8.33;;;;;;;;;;5024282;28;20427;-70
2021/09/05 08:03:03;;;;;;;12.20;8.55;;;;;;;;;;5025258;28;20486;-69
2021/09/05 08:05:28;;;;;;;15.27;9.10;;;;;;;;;;5020610;28;20182;-67
2021/09/05 08:07:54;;;;;;;12.30;7.90;;;;;;;;;;5020239;28;20580;-68
2021/09/05 08:10:19;;;;;;;11.77;8.52;;;;;;;;;;5016302;28;20427;-70
2021/09/05 08:12:44;;;;;;;13.75;7.85;;;;;;;;;;5019951;23;20256;-67
2021/09/05 08:15:09;;;;;;;11.30;8.48;;;;;;;;;;5004154;28;20273;-67
2021/09/05 08:17:35;;;;;;;13.93;8.82;;;;;;;;;;5003021;28;20853;-68
2021/09/05 08:20:00;;;;;;;11.77;7.97;;;;;;;;;;5001869;28;20602;-68
2021/09/05 08:22:25;;;;;;;14.55;8.95;;;;;;;;;;5002344;28;20507;-67
2021/09/05 08:24:50;;;;;;;12.87;8.63;;;;;;;;;;5002266;28;20195;-68
2021/09/05 08:27:15;;;;;;;13.20;7.40;;;;;;;;;;5003970;28;20475;-67
2021/09/05 08:29:40;;;;;;;14.53;7.67;;;;;;;;;;5002341;28;20450;-68
2021/09/05 08:32:06;;;;;;;11.05;8.48;;;;;;;;;;5003894;28;20515;-68
2021/09/05 08:34:34;;;;;;;11.18;8.07;;;;;;;;;;5008971;28;20210;-68
2021/09/05 08:37:00;;;;;;;12.73;8.73;;;;;;;;;;5001291;28;20206;-68
2021/09/05 08:39:26;;;;;;;10.80;9.00;;;;;;;;;;5001236;28;20566;-68
2021/09/05 08:41:53;;;;;;;10.60;7.07;;;;;;;;;;5001839;28;20193;-69
2021/09/05 08:44:18;;;;;;;13.00;8.05;;;;;;;;;;5001477;28;20261;-68
2021/09/05 08:46:43;;;;;;;10.10;7.40;;;;;;;;;;5002420;28;20182;-68
2021/09/05 08:49:08;;;;;;;11.55;7.38;;;;;;;;;;5001728;28;20183;-68
2021/09/05 08:51:34;;;;;;;9.63;7.00;;;;;;;;;;5005965;28;20187;-68
2021/09/05 08:53:59;;;;;;;13.38;7.70;;;;;;;;;;4999568;28;20518;-69
2021/09/05 08:56:24;;;;;;;11.77;8.02;;;;;;;;;;5000983;28;20181;-67
2021/09/05 08:58:50;;;;;;;12.88;6.97;;;;;;;;;;5004625;28;20235;-68
2021/09/05 09:01:26;;;;;;;11.75;7.45;;;;;;;;;;5001363;28;20179;-68
2021/09/05 09:04:02;;;;;;;9.40;6.43;;;;;;;;;;4998382;28;20190;-68
2021/09/05 09:06:35;;;;;;;11.50;6.18;;;;;;;;;;5007547;28;20186;-69
2021/09/05 09:09:04;;;;;;;8.88;6.45;;;;;;;;;;4999544;28;20252;-66
2021/09/05 09:11:45;;;;;;;11.35;6.82;;;;;;;;;;4998697;28;20187;-66
2021/09/05 09:14:11;;;;;;;12.23;7.03;;;;;;;;;;4994680;28;20221;-67
2021/09/05 09:16:36;;;;;;;12.33;6.83;;;;;;;;;;4991489;28;20602;-67
2021/09/05 09:19:01;;;;;;;9.57;6.75;;;;;;;;;;4998164;28;20463;-68
2021/09/05 09:21:26;;;;;;;13.30;7.30;;;;;;;;;;5007733;28;20276;-67
2021/09/05 09:23:51;;;;;;;9.43;6.40;;;;;;;;;;5010615;28;20203;-67
2021/09/05 09:26:17;;;;;;;11.77;6.60;;;;;;;;;;4988922;28;20447;-67
2021/09/05 09:28:47;;;;;;;10.45;6.50;;;;;;;;;;4993497;28;21024;-67
2021/09/05 09:31:14;;;;;;;9.95;6.75;;;;;;;;;;5009696;28;20187;-68
2021/09/05 09:33:41;;;;;;;12.18;6.70;;;;;;;;;;4987820;28;20235;-67
2021/09/05 09:36:07;;;;;;;11.65;7.40;;;;;;;;;;5009127;28;20178;-66
2021/09/05 09:38:33;;;;;;;12.35;6.43;;;;;;;;;;5007030;28;20349;-67
2021/09/05 09:41:05;;;;;;;10.05;6.00;;;;;;;;;;5003634;28;20735;-68
2021/09/05 09:43:30;;;;;;;11.40;6.72;;;;;;;;;;5006213;28;20209;-67
2021/09/05 09:46:09;;;;;;;11.38;6.35;;;;;;;;;;5006593;28;20183;-67
2021/09/05 09:48:41;;;;;;;10.85;6.60;;;;;;;;;;5003807;28;20691;-68
2021/09/05 09:51:06;;;;;;;12.38;6.45;;;;;;;;;;5007005;28;20629;-69
2021/09/05 09:53:31;;;;;;;9.43;5.87;;;;;;;;;;5007720;28;20289;-69
2021/09/05 09:55:57;;;;;;;10.53;7.27;;;;;;;;;;5009829;28;20186;-68
2021/09/05 09:58:22;;;;;;;8.35;5.85;;;;;;;;;;5009112;28;20981;-69
2021/09/05 10:00:48;;;;;;;11.07;6.70;;;;;;;;;;5009639;28;20258;-68
2021/09/05 10:03:14;;;;;;;7.15;6.03;;;;;;;;;;5009194;28;20452;-68
2021/09/05 10:05:39;;;;;;;10.07;5.80;;;;;;;;;;5009942;28;20278;-69
2021/09/05 10:08:06;;;;;;;10.65;6.38;;;;;;;;;;4992219;28;20230;-69
2021/09/05 10:10:32;;;;;;;9.38;6.35;;;;;;;;;;5007560;28;20252;-69
2021/09/05 10:12:58;;;;;;;9.18;5.93;;;;;;;;;;5008838;28;20655;-68
2021/09/05 10:15:24;;;;;;;9.23;6.53;;;;;;;;;;5009554;28;20656;-69
2021/09/05 10:17:49;;;;;;;8.18;5.20;;;;;;;;;;5008816;28;20261;-69
2021/09/05 10:20:16;;;;;;;8.55;6.18;;;;;;;;;;5007578;28;20179;-68
2021/09/05 10:22:43;;;;;;;10.48;6.30;;;;;;;;;;5007064;28;20174;-69
2021/09/05 10:25:08;;;;;;;10.70;6.32;;;;;;;;;;5009630;28;20186;-68
2021/09/05 10:27:38;;;;;;;11.63;6.82;;;;;;;;;;4989976;28;20190;-67
2021/09/05 10:30:06;;;;;;;6.40;5.75;;;;;;;;;;5007520;28;20669;-67
2021/09/05 10:32:50;;;;;;;8.30;6.10;;;;;;;;;;5009497;28;20266;-68
2021/09/05 10:35:24;;;;;;;7.38;5.43;;;;;;;;;;5007017;28;20171;-68
2021/09/05 10:37:50;;;;;;;8.82;6.65;;;;;;;;;;5007504;28;20232;-68
2021/09/05 10:40:15;;;;;;;10.48;6.93;;;;;;;;;;5008048;28;20179;-68
2021/09/05 10:42:56;;;;;;;12.07;6.20;;;;;;;;;;5007881;28;20179;-68
2021/09/05 10:45:22;;;;;;;9.50;5.80;;;;;;;;;;5006638;28;20421;-69
2021/09/05 10:47:48;;;;;;;8.07;6.10;;;;;;;;;;5010284;28;20237;-68
2021/09/05 10:50:32;;;;;;;9.57;6.05;;;;;;;;;;5008272;28;20217;-68
2021/09/05 10:53:17;;;;;;;9.35;5.85;;;;;;;;;;5009188;28;20800;-67
2021/09/05 10:56:01;;;;;;;9.02;5.80;;;;;;;;;;4991881;28;20218;-69
2021/09/05 10:58:35;;;;;;;8.43;5.75;;;;;;;;;;5006153;28;20404;-69
2021/09/05 11:01:01;;;;;;;6.47;5.15;;;;;;;;;;5006972;28;20183;-68
2021/09/05 11:03:27;;;;;;;7.65;5.60;;;;;;;;;;5005547;28;20209;-67
2021/09/05 11:06:12;;;;;;;8.07;6.10;;;;;;;;;;4992880;28;20183;-68
2021/09/05 11:08:37;;;;;;;7.97;5.13;;;;;;;;;;5007594;28;20290;-68
2021/09/05 11:11:02;;;;;;;8.13;5.80;;;;;;;;;;5008803;28;20630;-68
2021/09/05 11:13:46;;;;;;;6.90;5.77;;;;;;;;;;5008551;28;20213;-68
2021/09/05 11:16:13;;;;;;;7.40;5.03;;;;;;;;;;5011162;28;20675;-67
2021/09/05 11:18:38;;;;;;;8.90;5.45;;;;;;;;;;5007158;28;20218;-67
2021/09/05 11:21:03;;;;;;;6.97;4.97;;;;;;;;;;5008571;28;20175;-68
2021/09/05 11:23:34;;;;;;;6.30;4.67;;;;;;;;;;5006763;28;20270;-68
2021/09/05 11:26:06;;;;;;;7.05;5.50;;;;;;;;;;5008636;28;20206;-70
2021/09/05 11:28:32;;;;;;;8.48;5.43;;;;;;;;;;4985846;28;20273;-68
2021/09/05 11:30:58;;;;;;;8.17;5.00;;;;;;;;;;5006657;28;20641;-68
2021/09/05 11:33:26;;;;;;;9.98;5.93;;;;;;;;;;5000808;28;20203;-68
2021/09/05 11:35:51;;;;;;;7.53;4.75;;;;;;;;;;5003496;28;20190;-68
2021/09/05 11:38:16;;;;;;;8.47;4.93;;;;;;;;;;5003522;28;20260;-69
2021/09/05 11:40:43;;;;;;;5.68;4.75;;;;;;;;;;5007409;28;20424;-69
2021/09/05 11:43:08;;;;;;;7.28;5.18;;;;;;;;;;5006082;28;20199;-68
2021/09/05 11:45:35;;;;;;;5.45;4.63;;;;;;;;;;5006508;28;20182;-68
2021/09/05 11:48:02;;;;;;;8.75;5.30;;;;;;;;;;5007767;28;20192;-69
2021/09/05 11:50:28;;;;;;;6.20;4.80;;;;;;;;;;5001144;28;20179;-67
2021/09/05 11:52:54;;;;;;;7.32;4.82;;;;;;;;;;4982232;28;20194;-68
2021/09/05 11:55:20;;;;;;;5.63;5.05;;;;;;;;;;5005382;28;20193;-68
2021/09/05 11:57:54;;;;;;;7.53;5.40;;;;;;;;;;5005184;28;20191;-68
2021/09/05 12:00:36;;;;;;;6.03;4.75;;;;;;;;;;5007471;28;20229;-69
2021/09/05 12:03:03;;;;;;;7.35;5.35;;;;;;;;;;5001567;28;20672;-68
2021/09/05 12:05:28;;;;;;;8.48;4.93;;;;;;;;;;4998553;28;20218;-69
2021/09/05 12:07:54;;;;;;;8.35;5.20;;;;;;;;;;5001637;28;20206;-69
2021/09/05 12:10:21;;;;;;;7.03;5.60;;;;;;;;;;5003124;28;20209;-69
2021/09/05 12:12:59;;;;;;;6.35;4.63;;;;;;;;;;5002917;28;20202;-69
2021/09/05 12:15:25;;;;;;;7.63;5.63;;;;;;;;;;4998714;28;20182;-70
2021/09/05 12:17:51;;;;;;;7.10;5.28;;;;;;;;;;5004162;28;20213;-66
2021/09/05 12:20:22;;;;;;;7.38;6.03;;;;;;;;;;5006329;28;20277;-68
2021/09/05 12:22:47;;;;;;;8.02;5.65;;;;;;;;;;5008933;28;20609;-68
2021/09/05 12:25:17;;;;;;;6.90;4.90;;;;;;;;;;5003530;28;20186;-68
2021/09/05 12:27:52;;;;;;;6.95;5.45;;;;;;;;;;4990473;28;20440;-68
2021/09/05 12:30:22;;;;;;;7.07;5.70;;;;;;;;;;5007453;28;20185;-69
2021/09/05 12:33:13;;;;;;;6.03;5.00;;;;;;;;;;5004525;28;20195;-69
2021/09/05 12:35:40;;;;;;;6.63;4.68;;;;;;;;;;4987911;28;20206;-68
2021/09/05 12:38:08;;;;;;;8.85;5.38;;;;;;;;;;5005139;28;20229;-67
2021/09/05 12:40:34;;;;;;;6.78;5.57;;;;;;;;;;5006776;28;20259;-68
2021/09/05 12:42:59;;;;;;;6.82;5.82;;;;;;;;;;5002568;28;20211;-68
2021/09/05 12:45:24;;;;;;;6.43;5.43;;;;;;;;;;5006478;28;20178;-68
2021/09/05 12:47:49;;;;;;;6.00;5.23;;;;;;;;;;4991501;28;20564;-69
2021/09/05 12:50:19;;;;;;;8.80;5.70;;;;;;;;;;5006785;28;20191;-70
2021/09/05 12:52:44;;;;;;;5.68;5.10;;;;;;;;;;5007457;28;20187;-67
2021/09/05 12:55:09;;;;;;;5.95;5.35;;;;;;;;;;5009637;28;20854;-68
2021/09/05 12:57:34;;;;;;;5.73;4.97;;;;;;;;;;5010493;28;20233;-67
2021/09/05 12:59:59;;;;;;;6.20;5.23;;;;;;;;;;5008285;28;20642;-68
2021/09/05 13:02:25;;;;;;;7.07;5.13;;;;;;;;;;5004522;28;20189;-68
2021/09/05 13:04:50;;;;;;;5.82;5.28;;;;;;;;;;5003738;28;20656;-69
2021/09/05 13:07:15;;;;;;;5.43;4.93;;;;;;;;;;5008885;28;20214;-68
2021/09/05 13:09:40;;;;;;;5.83;5.20;;;;;;;;;;5010223;28;20187;-68
2021/09/05 13:12:06;;;;;;;6.50;5.40;;;;;;;;;;5008104;28;20261;-69
2021/09/05 13:14:31;;;;;;;6.47;5.30;;;;;;;;;;5010422;28;20217;-69
2021/09/05 13:16:57;;;;;;;5.80;5.20;;;;;;;;;;5007092;28;20261;-69
2021/09/05 13:19:22;;;;;;;8.15;5.65;;;;;;;;;;5003509;28;20507;-69
2021/09/05 13:21:47;;;;;;;8.27;5.73;;;;;;;;;;5005865;28;20206;-69
2021/09/05 13:24:12;;;;;;;6.13;5.50;;;;;;;;;;5007981;28;20537;-69
2021/09/05 13:26:38;;;;;;;8.45;5.95;;;;;;;;;;5011097;28;20866;-69
2021/09/05 13:29:03;;;;;;;6.20;5.53;;;;;;;;;;5008272;28;20186;-69
2021/09/05 13:31:30;;;;;;;7.07;5.27;;;;;;;;;;5008324;28;20182;-68
2021/09/05 13:33:56;;;;;;;6.35;5.35;;;;;;;;;;5008079;28;20203;-68
2021/09/05 13:36:21;;;;;;;6.15;5.53;;;;;;;;;;5007739;28;20175;-69
2021/09/05 13:38:47;;;;;;;6.53;5.70;;;;;;;;;;5003632;28;20526;-69
2021/09/05 13:41:12;;;;;;;7.45;6.05;;;;;;;;;;5000675;28;20179;-69
2021/09/05 13:43:37;;;;;;;6.75;5.60;;;;;;;;;;5008586;28;20221;-68
2021/09/05 13:46:02;;;;;;;6.60;6.00;;;;;;;;;;5001374;28;20202;-68
2021/09/05 13:48:28;;;;;;;6.33;5.53;;;;;;;;;;5007261;28;20182;-68
2021/09/05 13:50:53;;;;;;;7.07;6.15;;;;;;;;;;5005507;28;20570;-69
2021/09/05 13:53:18;;;;;;;6.10;5.23;;;;;;;;;;5001291;28;20261;-68
2021/09/05 13:55:43;;;;;;;6.05;5.45;;;;;;;;;;5004674;28;20424;-69
2021/09/05 13:58:09;;;;;;;8.23;5.90;;;;;;;;;;5009804;28;20206;-69
2021/09/05 14:00:35;;;;;;;9.02;6.47;;;;;;;;;;5006023;28;20206;-68
2021/09/05 14:03:00;;;;;;;5.73;5.07;;;;;;;;;;5004315;28;20675;-67
2021/09/05 14:05:25;;;;;;;5.97;5.43;;;;;;;;;;5007594;28;20175;-68
2021/09/05 14:07:51;;;;;;;5.63;5.13;;;;;;;;;;5003771;28;20179;-68
2021/09/05 14:10:16;;;;;;;6.00;4.85;;;;;;;;;;5005929;28;20183;-68
2021/09/05 14:12:41;;;;;;;8.13;5.30;;;;;;;;;;4991797;28;20189;-67
2021/09/05 14:15:06;;;;;;;6.43;5.23;;;;;;;;;;5034281;23;20303;-69
2021/09/05 14:17:32;;;;;;;7.07;5.45;;;;;;;;;;5006688;28;20668;-69
2021/09/05 14:19:57;;;;;;;5.55;4.82;;;;;;;;;;5004259;28;20178;-69
2021/09/05 14:22:22;;;;;;;7.70;5.28;;;;;;;;;;5005180;28;20229;-69
2021/09/05 14:24:47;;;;;;;7.80;5.90;;;;;;;;;;5004615;28;20206;-70